メインページ
METAR-TAF:

METAR-TAF

空港 :

Prince George, ブリティッシュコロンビア州, カナダ

緯度: 53-53N, 経度: 122-41W, 海抜: 691m

現時点の気象観測

当レポートは16分前の03:00(UTC)に作成
南/南西の風 3kt
気温 10°C
湿度 66%
気圧 1021 hPa
視程: 14.5km
高度6500ftの曇り

METAR: CYXS 250300Z AUTO 21003KT 9SM OVC065 10/04 A3016 RMK SLP236

時間: 20:16 (03:16 UTC)

予報

当レポートは2時間38分前の00:38(UTC)に作成
予報は25日の 01時(UTC)から 25日の 13時(UTC)まで有効
西/北西の風 7kt
視程: 10km
高度7000ftの雲はほとんどない
25日の 03時(UTC)から 25日の 05時(UTC)まで徐々に
南/南西の風 7kt

TAF: CYXS 250038Z 2501/2513 29007KT P6SM FEW070 BECMG 2503/2505 20007KT RMK FCST BASED ON AUTO OBS. NXT FCST BY 250700Z

4,000以上の空港の気象観測と天気予報(METAR報とTAF報)

利用可能な観測所は地図上に黄色い丸と赤い丸で示す。

丸の上にカーソルを重ねると観測所名を参照できる。

次にクリックすると気象観測と天気予報を参照できる。

マップの切り替え:黒色「×」印の緑ボタンをクリックして拡大、「-」印の緑ボタンをクリックして縮小、緑色の三角印をクリックして隣りの地図に切り替え


METAR-TAF: